sensor_id;sensor_type;location;lat;lon;timestamp;P1;durP1;ratioP1;P2;durP2;ratioP2
69083;SDS011;56185;48.526;9.044;2022-09-09T00:01:04;4.00;;;1.20;;
69083;SDS011;56185;48.526;9.044;2022-09-09T00:06:23;2.03;;;0.98;;
69083;SDS011;56185;48.526;9.044;2022-09-09T00:08:56;2.42;;;1.27;;
69083;SDS011;56185;48.526;9.044;2022-09-09T00:11:29;3.10;;;1.00;;
69083;SDS011;56185;48.526;9.044;2022-09-09T00:14:18;4.30;;;1.20;;
69083;SDS011;56185;48.526;9.044;2022-09-09T00:17:20;2.50;;;1.10;;
69083;SDS011;56185;48.526;9.044;2022-09-09T00:22:45;3.47;;;1.35;;
69083;SDS011;56185;48.526;9.044;2022-09-09T00:25:42;3.38;;;1.17;;
69083;SDS011;56185;48.526;9.044;2022-09-09T00:28:23;3.45;;;1.48;;
69083;SDS011;56185;48.526;9.044;2022-09-09T00:30:52;2.80;;;1.40;;
69083;SDS011;56185;48.526;9.044;2022-09-09T00:33:20;5.35;;;1.30;;
69083;SDS011;56185;48.526;9.044;2022-09-09T00:35:49;4.47;;;1.52;;
69083;SDS011;56185;48.526;9.044;2022-09-09T00:38:19;3.45;;;1.25;;
69083;SDS011;56185;48.526;9.044;2022-09-09T00:40:53;2.97;;;1.33;;
69083;SDS011;56185;48.526;9.044;2022-09-09T00:43:29;4.95;;;1.20;;
69083;SDS011;56185;48.526;9.044;2022-09-09T00:57:14;2.17;;;1.30;;
69083;SDS011;56185;48.526;9.044;2022-09-09T01:11:20;5.50;;;1.38;;
69083;SDS011;56185;48.526;9.044;2022-09-09T01:13:49;2.38;;;1.25;;
69083;SDS011;56185;48.526;9.044;2022-09-09T01:16:20;3.90;;;1.02;;
69083;SDS011;56185;48.526;9.044;2022-09-09T01:18:48;4.35;;;1.20;;
69083;SDS011;56185;48.526;9.044;2022-09-09T01:21:39;4.90;;;1.17;;
69083;SDS011;56185;48.526;9.044;2022-09-09T01:27:05;2.72;;;1.10;;
69083;SDS011;56185;48.526;9.044;2022-09-09T01:29:42;3.83;;;1.10;;
69083;SDS011;56185;48.526;9.044;2022-09-09T01:35:07;3.70;;;1.67;;
69083;SDS011;56185;48.526;9.044;2022-09-09T01:37:34;2.50;;;1.30;;
69083;SDS011;56185;48.526;9.044;2022-09-09T01:40:00;5.15;;;1.20;;
69083;SDS011;56185;48.526;9.044;2022-09-09T01:42:39;3.38;;;1.35;;
69083;SDS011;56185;48.526;9.044;2022-09-09T01:45:07;3.88;;;1.08;;
69083;SDS011;56185;48.526;9.044;2022-09-09T01:47:36;3.55;;;1.20;;
69083;SDS011;56185;48.526;9.044;2022-09-09T01:50:01;4.38;;;1.30;;
69083;SDS011;56185;48.526;9.044;2022-09-09T01:52:27;4.03;;;1.30;;
69083;SDS011;56185;48.526;9.044;2022-09-09T01:55:10;2.58;;;1.27;;
69083;SDS011;56185;48.526;9.044;2022-09-09T01:57:43;4.13;;;1.40;;
69083;SDS011;56185;48.526;9.044;2022-09-09T02:00:17;4.80;;;1.30;;
69083;SDS011;56185;48.526;9.044;2022-09-09T02:05:40;3.20;;;1.10;;
69083;SDS011;56185;48.526;9.044;2022-09-09T02:11:02;3.47;;;1.15;;
69083;SDS011;56185;48.526;9.044;2022-09-09T02:13:35;3.28;;;1.20;;
69083;SDS011;56185;48.526;9.044;2022-09-09T02:16:26;4.80;;;1.38;;
69083;SDS011;56185;48.526;9.044;2022-09-09T02:19:03;4.55;;;1.20;;
69083;SDS011;56185;48.526;9.044;2022-09-09T02:21:36;3.22;;;1.33;;
69083;SDS011;56185;48.526;9.044;2022-09-09T02:24:03;2.80;;;1.10;;
69083;SDS011;56185;48.526;9.044;2022-09-09T02:26:31;6.13;;;1.30;;
69083;SDS011;56185;48.526;9.044;2022-09-09T02:29:01;2.78;;;1.20;;
69083;SDS011;56185;48.526;9.044;2022-09-09T02:31:30;2.35;;;1.50;;
69083;SDS011;56185;48.526;9.044;2022-09-09T02:33:58;4.13;;;1.20;;
69083;SDS011;56185;48.526;9.044;2022-09-09T02:36:27;4.03;;;1.40;;
69083;SDS011;56185;48.526;9.044;2022-09-09T02:38:55;3.67;;;1.10;;
69083;SDS011;56185;48.526;9.044;2022-09-09T02:41:23;3.45;;;1.30;;
69083;SDS011;56185;48.526;9.044;2022-09-09T02:43:52;4.57;;;1.40;;
69083;SDS011;56185;48.526;9.044;2022-09-09T02:49:06;4.00;;;1.10;;
69083;SDS011;56185;48.526;9.044;2022-09-09T02:51:54;2.80;;;1.40;;
69083;SDS011;56185;48.526;9.044;2022-09-09T02:54:37;2.70;;;1.17;;
69083;SDS011;56185;48.526;9.044;2022-09-09T02:57:04;3.10;;;1.40;;
69083;SDS011;56185;48.526;9.044;2022-09-09T02:59:35;3.83;;;1.33;;
69083;SDS011;56185;48.526;9.044;2022-09-09T03:02:00;4.10;;;1.40;;
69083;SDS011;56185;48.526;9.044;2022-09-09T03:04:25;2.50;;;1.43;;
69083;SDS011;56185;48.526;9.044;2022-09-09T03:06:51;2.60;;;1.23;;
69083;SDS011;56185;48.526;9.044;2022-09-09T03:09:16;3.10;;;1.50;;
69083;SDS011;56185;48.526;9.044;2022-09-09T03:11:41;5.37;;;1.40;;
69083;SDS011;56185;48.526;9.044;2022-09-09T03:14:07;3.60;;;1.27;;
69083;SDS011;56185;48.526;9.044;2022-09-09T03:16:32;2.50;;;1.30;;
69083;SDS011;56185;48.526;9.044;2022-09-09T03:18:57;3.87;;;1.30;;
69083;SDS011;56185;48.526;9.044;2022-09-09T03:21:22;3.37;;;1.50;;
69083;SDS011;56185;48.526;9.044;2022-09-09T03:23:48;4.07;;;1.50;;
69083;SDS011;56185;48.526;9.044;2022-09-09T03:26:13;8.40;;;1.70;;
69083;SDS011;56185;48.526;9.044;2022-09-09T03:28:38;3.57;;;1.30;;
69083;SDS011;56185;48.526;9.044;2022-09-09T03:31:04;4.53;;;1.50;;
69083;SDS011;56185;48.526;9.044;2022-09-09T03:33:30;3.97;;;1.58;;
69083;SDS011;56185;48.526;9.044;2022-09-09T03:35:56;3.78;;;1.45;;
69083;SDS011;56185;48.526;9.044;2022-09-09T03:38:24;3.33;;;1.42;;
69083;SDS011;56185;48.526;9.044;2022-09-09T03:40:50;3.28;;;1.48;;
69083;SDS011;56185;48.526;9.044;2022-09-09T03:43:16;3.67;;;1.50;;
69083;SDS011;56185;48.526;9.044;2022-09-09T03:45:45;4.22;;;1.40;;
69083;SDS011;56185;48.526;9.044;2022-09-09T03:48:11;5.68;;;1.40;;
69083;SDS011;56185;48.526;9.044;2022-09-09T03:50:36;2.47;;;1.27;;
69083;SDS011;56185;48.526;9.044;2022-09-09T03:53:01;2.90;;;1.40;;
69083;SDS011;56185;48.526;9.044;2022-09-09T03:55:26;2.87;;;1.20;;
69083;SDS011;56185;48.526;9.044;2022-09-09T03:57:52;3.43;;;1.27;;
69083;SDS011;56185;48.526;9.044;2022-09-09T04:00:17;2.47;;;1.40;;
69083;SDS011;56185;48.526;9.044;2022-09-09T04:02:42;3.80;;;2.03;;
69083;SDS011;56185;48.526;9.044;2022-09-09T04:05:08;2.93;;;1.50;;
69083;SDS011;56185;48.526;9.044;2022-09-09T04:07:33;3.50;;;1.40;;
69083;SDS011;56185;48.526;9.044;2022-09-09T04:09:58;4.70;;;1.35;;
69083;SDS011;56185;48.526;9.044;2022-09-09T04:12:23;2.60;;;1.20;;
69083;SDS011;56185;48.526;9.044;2022-09-09T04:14:49;6.37;;;1.40;;
69083;SDS011;56185;48.526;9.044;2022-09-09T04:17:14;2.33;;;1.40;;
69083;SDS011;56185;48.526;9.044;2022-09-09T04:19:39;3.40;;;1.30;;
69083;SDS011;56185;48.526;9.044;2022-09-09T04:22:04;2.20;;;1.10;;
69083;SDS011;56185;48.526;9.044;2022-09-09T04:24:30;2.70;;;1.23;;
69083;SDS011;56185;48.526;9.044;2022-09-09T04:26:55;4.53;;;1.40;;
69083;SDS011;56185;48.526;9.044;2022-09-09T04:29:20;3.53;;;1.10;;
69083;SDS011;56185;48.526;9.044;2022-09-09T04:31:45;3.17;;;1.13;;
69083;SDS011;56185;48.526;9.044;2022-09-09T04:34:11;2.90;;;1.20;;
69083;SDS011;56185;48.526;9.044;2022-09-09T04:36:36;2.72;;;1.38;;
69083;SDS011;56185;48.526;9.044;2022-09-09T04:39:01;2.60;;;1.20;;
69083;SDS011;56185;48.526;9.044;2022-09-09T04:41:27;3.47;;;1.17;;
69083;SDS011;56185;48.526;9.044;2022-09-09T04:43:52;2.85;;;1.10;;
69083;SDS011;56185;48.526;9.044;2022-09-09T04:46:18;2.25;;;1.30;;
69083;SDS011;56185;48.526;9.044;2022-09-09T04:48:43;5.03;;;1.73;;
69083;SDS011;56185;48.526;9.044;2022-09-09T04:51:09;3.53;;;1.25;;
69083;SDS011;56185;48.526;9.044;2022-09-09T04:53:37;7.47;;;2.95;;
69083;SDS011;56185;48.526;9.044;2022-09-09T04:58:28;4.30;;;1.50;;
69083;SDS011;56185;48.526;9.044;2022-09-09T05:00:53;5.05;;;1.38;;
69083;SDS011;56185;48.526;9.044;2022-09-09T05:03:19;7.80;;;1.70;;
69083;SDS011;56185;48.526;9.044;2022-09-09T05:05:44;3.27;;;1.37;;
69083;SDS011;56185;48.526;9.044;2022-09-09T05:08:09;3.15;;;1.30;;
69083;SDS011;56185;48.526;9.044;2022-09-09T05:10:36;3.15;;;1.30;;
69083;SDS011;56185;48.526;9.044;2022-09-09T05:13:02;3.30;;;1.27;;
69083;SDS011;56185;48.526;9.044;2022-09-09T05:15:28;5.50;;;1.50;;
69083;SDS011;56185;48.526;9.044;2022-09-09T05:17:56;2.83;;;1.50;;
69083;SDS011;56185;48.526;9.044;2022-09-09T05:20:25;3.03;;;1.33;;
69083;SDS011;56185;48.526;9.044;2022-09-09T05:22:55;4.65;;;1.50;;
69083;SDS011;56185;48.526;9.044;2022-09-09T05:25:21;3.45;;;1.30;;
69083;SDS011;56185;48.526;9.044;2022-09-09T05:27:46;3.80;;;1.40;;
69083;SDS011;56185;48.526;9.044;2022-09-09T05:30:11;6.40;;;2.00;;
69083;SDS011;56185;48.526;9.044;2022-09-09T05:32:36;3.13;;;1.40;;
69083;SDS011;56185;48.526;9.044;2022-09-09T05:35:02;3.63;;;1.70;;
69083;SDS011;56185;48.526;9.044;2022-09-09T05:37:28;2.92;;;1.40;;
69083;SDS011;56185;48.526;9.044;2022-09-09T05:39:53;5.75;;;1.55;;
69083;SDS011;56185;48.526;9.044;2022-09-09T05:42:19;3.93;;;1.50;;
69083;SDS011;56185;48.526;9.044;2022-09-09T05:44:44;4.93;;;1.33;;
69083;SDS011;56185;48.526;9.044;2022-09-09T05:47:09;3.97;;;1.40;;
69083;SDS011;56185;48.526;9.044;2022-09-09T05:49:34;2.87;;;1.50;;
69083;SDS011;56185;48.526;9.044;2022-09-09T05:52:00;4.57;;;1.43;;
69083;SDS011;56185;48.526;9.044;2022-09-09T05:54:25;5.30;;;1.45;;
69083;SDS011;56185;48.526;9.044;2022-09-09T05:56:50;3.80;;;1.57;;
69083;SDS011;56185;48.526;9.044;2022-09-09T05:59:16;4.27;;;1.40;;
69083;SDS011;56185;48.526;9.044;2022-09-09T06:01:41;2.45;;;1.35;;
69083;SDS011;56185;48.526;9.044;2022-09-09T06:04:07;3.40;;;1.55;;
69083;SDS011;56185;48.526;9.044;2022-09-09T06:06:37;2.72;;;1.33;;
69083;SDS011;56185;48.526;9.044;2022-09-09T06:09:03;3.28;;;1.35;;
69083;SDS011;56185;48.526;9.044;2022-09-09T06:11:30;5.25;;;1.40;;
69083;SDS011;56185;48.526;9.044;2022-09-09T06:13:56;3.90;;;1.40;;
69083;SDS011;56185;48.526;9.044;2022-09-09T06:16:22;7.60;;;1.45;;
69083;SDS011;56185;48.526;9.044;2022-09-09T06:18:49;4.43;;;1.40;;
69083;SDS011;56185;48.526;9.044;2022-09-09T06:21:16;3.85;;;1.30;;
69083;SDS011;56185;48.526;9.044;2022-09-09T06:23:45;3.13;;;1.30;;
69083;SDS011;56185;48.526;9.044;2022-09-09T06:26:13;2.40;;;1.30;;
69083;SDS011;56185;48.526;9.044;2022-09-09T06:28:40;4.05;;;1.33;;
69083;SDS011;56185;48.526;9.044;2022-09-09T06:31:06;2.85;;;1.20;;
69083;SDS011;56185;48.526;9.044;2022-09-09T06:33:34;3.97;;;1.40;;
69083;SDS011;56185;48.526;9.044;2022-09-09T06:36:00;2.25;;;1.10;;
69083;SDS011;56185;48.526;9.044;2022-09-09T06:38:27;4.53;;;1.58;;
69083;SDS011;56185;48.526;9.044;2022-09-09T06:40:53;4.38;;;1.40;;
69083;SDS011;56185;48.526;9.044;2022-09-09T06:43:18;2.45;;;1.20;;
69083;SDS011;56185;48.526;9.044;2022-09-09T06:45:51;7.28;;;1.50;;
69083;SDS011;56185;48.526;9.044;2022-09-09T06:48:24;5.25;;;1.40;;
69083;SDS011;56185;48.526;9.044;2022-09-09T06:50:49;3.78;;;1.35;;
69083;SDS011;56185;48.526;9.044;2022-09-09T06:53:18;3.27;;;1.40;;
69083;SDS011;56185;48.526;9.044;2022-09-09T06:55:43;4.85;;;1.40;;
69083;SDS011;56185;48.526;9.044;2022-09-09T06:58:08;4.23;;;1.30;;
69083;SDS011;56185;48.526;9.044;2022-09-09T07:00:34;2.73;;;1.30;;
69083;SDS011;56185;48.526;9.044;2022-09-09T07:02:59;3.90;;;1.40;;
69083;SDS011;56185;48.526;9.044;2022-09-09T07:05:24;3.73;;;1.10;;
69083;SDS011;56185;48.526;9.044;2022-09-09T07:07:50;2.80;;;1.40;;
69083;SDS011;56185;48.526;9.044;2022-09-09T07:10:15;3.72;;;1.50;;
69083;SDS011;56185;48.526;9.044;2022-09-09T07:12:40;2.55;;;1.30;;
69083;SDS011;56185;48.526;9.044;2022-09-09T07:15:06;2.93;;;1.40;;
69083;SDS011;56185;48.526;9.044;2022-09-09T07:17:31;3.03;;;1.38;;
69083;SDS011;56185;48.526;9.044;2022-09-09T07:19:56;6.50;;;1.35;;
69083;SDS011;56185;48.526;9.044;2022-09-09T07:22:22;2.20;;;1.23;;
69083;SDS011;56185;48.526;9.044;2022-09-09T07:24:47;3.72;;;1.40;;
69083;SDS011;56185;48.526;9.044;2022-09-09T07:27:12;4.07;;;1.30;;
69083;SDS011;56185;48.526;9.044;2022-09-09T07:29:37;2.40;;;1.13;;
69083;SDS011;56185;48.526;9.044;2022-09-09T07:32:03;2.63;;;1.40;;
69083;SDS011;56185;48.526;9.044;2022-09-09T07:34:28;2.80;;;1.30;;
69083;SDS011;56185;48.526;9.044;2022-09-09T07:36:53;3.93;;;1.27;;
69083;SDS011;56185;48.526;9.044;2022-09-09T07:39:18;3.83;;;1.47;;
69083;SDS011;56185;48.526;9.044;2022-09-09T07:41:45;3.03;;;1.60;;
69083;SDS011;56185;48.526;9.044;2022-09-09T07:44:13;5.25;;;1.50;;
69083;SDS011;56185;48.526;9.044;2022-09-09T07:46:40;4.30;;;1.30;;
69083;SDS011;56185;48.526;9.044;2022-09-09T07:49:06;2.15;;;1.13;;
69083;SDS011;56185;48.526;9.044;2022-09-09T07:51:33;2.78;;;1.00;;
69083;SDS011;56185;48.526;9.044;2022-09-09T07:54:01;4.18;;;1.27;;
69083;SDS011;56185;48.526;9.044;2022-09-09T07:56:28;2.78;;;1.17;;
69083;SDS011;56185;48.526;9.044;2022-09-09T07:58:55;3.65;;;1.25;;
69083;SDS011;56185;48.526;9.044;2022-09-09T08:01:22;6.22;;;1.42;;
69083;SDS011;56185;48.526;9.044;2022-09-09T08:03:53;3.28;;;1.40;;
69083;SDS011;56185;48.526;9.044;2022-09-09T08:06:20;3.30;;;1.20;;
69083;SDS011;56185;48.526;9.044;2022-09-09T08:08:49;4.67;;;1.33;;
69083;SDS011;56185;48.526;9.044;2022-09-09T08:11:15;3.88;;;1.20;;
69083;SDS011;56185;48.526;9.044;2022-09-09T08:13:40;2.72;;;1.20;;
69083;SDS011;56185;48.526;9.044;2022-09-09T08:16:07;2.60;;;1.20;;
69083;SDS011;56185;48.526;9.044;2022-09-09T08:18:40;1.80;;;1.10;;
69083;SDS011;56185;48.526;9.044;2022-09-09T08:21:13;3.28;;;1.27;;
69083;SDS011;56185;48.526;9.044;2022-09-09T08:23:41;3.72;;;1.30;;
69083;SDS011;56185;48.526;9.044;2022-09-09T08:26:11;2.30;;;1.10;;
69083;SDS011;56185;48.526;9.044;2022-09-09T08:28:38;2.67;;;1.25;;
69083;SDS011;56185;48.526;9.044;2022-09-09T08:31:14;4.38;;;1.20;;
69083;SDS011;56185;48.526;9.044;2022-09-09T08:33:42;4.93;;;1.27;;
69083;SDS011;56185;48.526;9.044;2022-09-09T08:36:09;3.58;;;1.23;;
69083;SDS011;56185;48.526;9.044;2022-09-09T08:38:36;3.72;;;1.10;;
69083;SDS011;56185;48.526;9.044;2022-09-09T08:43:33;3.45;;;1.10;;
69083;SDS011;56185;48.526;9.044;2022-09-09T08:46:05;4.88;;;1.30;;
69083;SDS011;56185;48.526;9.044;2022-09-09T08:48:42;3.45;;;1.30;;
69083;SDS011;56185;48.526;9.044;2022-09-09T08:51:13;5.60;;;1.20;;
69083;SDS011;56185;48.526;9.044;2022-09-09T08:53:43;1.88;;;1.00;;
69083;SDS011;56185;48.526;9.044;2022-09-09T08:56:12;4.60;;;1.10;;
69083;SDS011;56185;48.526;9.044;2022-09-09T08:58:51;3.88;;;1.27;;
69083;SDS011;56185;48.526;9.044;2022-09-09T09:09:32;4.35;;;1.30;;
69083;SDS011;56185;48.526;9.044;2022-09-09T09:12:18;2.92;;;1.10;;
69083;SDS011;56185;48.526;9.044;2022-09-09T09:14:45;2.70;;;1.10;;
69083;SDS011;56185;48.526;9.044;2022-09-09T09:17:13;2.20;;;0.90;;
69083;SDS011;56185;48.526;9.044;2022-09-09T09:19:41;8.65;;;1.13;;
69083;SDS011;56185;48.526;9.044;2022-09-09T09:25:08;3.83;;;1.20;;
69083;SDS011;56185;48.526;9.044;2022-09-09T09:27:40;4.40;;;0.80;;
69083;SDS011;56185;48.526;9.044;2022-09-09T09:30:30;3.03;;;1.00;;
69083;SDS011;56185;48.526;9.044;2022-09-09T09:35:45;4.28;;;1.08;;
69083;SDS011;56185;48.526;9.044;2022-09-09T09:38:21;4.63;;;1.23;;
69083;SDS011;56185;48.526;9.044;2022-09-09T09:40:59;2.33;;;0.90;;
69083;SDS011;56185;48.526;9.044;2022-09-09T09:45:57;1.88;;;0.88;;
69083;SDS011;56185;48.526;9.044;2022-09-09T09:48:23;5.97;;;1.10;;
69083;SDS011;56185;48.526;9.044;2022-09-09T09:50:57;4.93;;;1.10;;
69083;SDS011;56185;48.526;9.044;2022-09-09T09:53:26;7.20;;;0.90;;
69083;SDS011;56185;48.526;9.044;2022-09-09T09:56:00;3.65;;;1.08;;
69083;SDS011;56185;48.526;9.044;2022-09-09T09:58:27;4.15;;;0.98;;
69083;SDS011;56185;48.526;9.044;2022-09-09T10:00:56;3.05;;;1.00;;
69083;SDS011;56185;48.526;9.044;2022-09-09T10:05:53;2.60;;;0.90;;
69083;SDS011;56185;48.526;9.044;2022-09-09T10:08:19;4.38;;;1.10;;
69083;SDS011;56185;48.526;9.044;2022-09-09T10:10:53;2.88;;;1.00;;
69083;SDS011;56185;48.526;9.044;2022-09-09T10:18:30;3.38;;;0.82;;
69083;SDS011;56185;48.526;9.044;2022-09-09T10:21:12;2.25;;;1.00;;
69083;SDS011;56185;48.526;9.044;2022-09-09T10:24:11;2.72;;;0.80;;
69083;SDS011;56185;48.526;9.044;2022-09-09T10:29:57;3.05;;;0.90;;
69083;SDS011;56185;48.526;9.044;2022-09-09T10:34:58;3.63;;;0.93;;
69083;SDS011;56185;48.526;9.044;2022-09-09T10:40:28;4.25;;;0.98;;
69083;SDS011;56185;48.526;9.044;2022-09-09T10:43:03;4.30;;;1.00;;
69083;SDS011;56185;48.526;9.044;2022-09-09T10:53:47;5.72;;;1.48;;
69083;SDS011;56185;48.526;9.044;2022-09-09T10:56:25;8.85;;;2.20;;
69083;SDS011;56185;48.526;9.044;2022-09-09T10:58:53;3.47;;;1.10;;
69083;SDS011;56185;48.526;9.044;2022-09-09T11:01:36;3.78;;;0.90;;
69083;SDS011;56185;48.526;9.044;2022-09-09T11:06:55;2.88;;;0.80;;
69083;SDS011;56185;48.526;9.044;2022-09-09T11:09:23;3.63;;;0.70;;
69083;SDS011;56185;48.526;9.044;2022-09-09T11:11:55;5.65;;;0.90;;
69083;SDS011;56185;48.526;9.044;2022-09-09T11:16:50;3.17;;;1.00;;
69083;SDS011;56185;48.526;9.044;2022-09-09T11:19:25;2.85;;;0.70;;
69083;SDS011;56185;48.526;9.044;2022-09-09T11:21:55;2.35;;;0.70;;
69083;SDS011;56185;48.526;9.044;2022-09-09T11:24:23;4.30;;;0.70;;
69083;SDS011;56185;48.526;9.044;2022-09-09T11:26:52;2.65;;;0.70;;
69083;SDS011;56185;48.526;9.044;2022-09-09T11:40:31;2.17;;;0.70;;
69083;SDS011;56185;48.526;9.044;2022-09-09T11:43:01;1.00;;;0.40;;
69083;SDS011;56185;48.526;9.044;2022-09-09T11:45:35;1.50;;;0.60;;
69083;SDS011;56185;48.526;9.044;2022-09-09T11:48:04;3.58;;;0.65;;
69083;SDS011;56185;48.526;9.044;2022-09-09T11:50:34;1.55;;;0.50;;
69083;SDS011;56185;48.526;9.044;2022-09-09T11:53:20;2.20;;;0.60;;
69083;SDS011;56185;48.526;9.044;2022-09-09T11:56:49;1.20;;;0.60;;
69083;SDS011;56185;48.526;9.044;2022-09-09T12:01:33;1.40;;;0.70;;
69083;SDS011;56185;48.526;9.044;2022-09-09T12:06:48;2.03;;;0.75;;
69083;SDS011;56185;48.526;9.044;2022-09-09T12:09:21;2.25;;;0.63;;
69083;SDS011;56185;48.526;9.044;2022-09-09T12:12:04;1.65;;;0.60;;
69083;SDS011;56185;48.526;9.044;2022-09-09T12:14:35;2.38;;;0.70;;
69083;SDS011;56185;48.526;9.044;2022-09-09T12:17:19;9.63;;;1.00;;
69083;SDS011;56185;48.526;9.044;2022-09-09T12:19:47;2.55;;;0.70;;
69083;SDS011;56185;48.526;9.044;2022-09-09T12:22:56;3.50;;;0.65;;
69083;SDS011;56185;48.526;9.044;2022-09-09T12:27:33;6.63;;;0.77;;
69083;SDS011;56185;48.526;9.044;2022-09-09T12:30:07;2.63;;;0.70;;
69083;SDS011;56185;48.526;9.044;2022-09-09T12:32:39;3.97;;;0.70;;
69083;SDS011;56185;48.526;9.044;2022-09-09T12:43:18;3.80;;;0.55;;
69083;SDS011;56185;48.526;9.044;2022-09-09T12:45:44;1.90;;;0.60;;
69083;SDS011;56185;48.526;9.044;2022-09-09T12:48:10;2.72;;;0.63;;
69083;SDS011;56185;48.526;9.044;2022-09-09T12:50:50;2.20;;;0.57;;
69083;SDS011;56185;48.526;9.044;2022-09-09T12:53:28;1.77;;;0.70;;
69083;SDS011;56185;48.526;9.044;2022-09-09T12:55:57;2.80;;;0.60;;
69083;SDS011;56185;48.526;9.044;2022-09-09T12:58:24;3.30;;;0.77;;
69083;SDS011;56185;48.526;9.044;2022-09-09T13:00:51;1.73;;;0.45;;
69083;SDS011;56185;48.526;9.044;2022-09-09T13:03:18;2.70;;;0.77;;
69083;SDS011;56185;48.526;9.044;2022-09-09T13:05:45;2.45;;;0.60;;
69083;SDS011;56185;48.526;9.044;2022-09-09T13:08:12;5.55;;;0.80;;
69083;SDS011;56185;48.526;9.044;2022-09-09T13:13:41;2.13;;;0.70;;
69083;SDS011;56185;48.526;9.044;2022-09-09T13:16:18;1.95;;;0.80;;
69083;SDS011;56185;48.526;9.044;2022-09-09T13:18:51;3.63;;;0.63;;
69083;SDS011;56185;48.526;9.044;2022-09-09T13:21:17;3.22;;;0.90;;
69083;SDS011;56185;48.526;9.044;2022-09-09T13:23:48;2.22;;;0.70;;
69083;SDS011;56185;48.526;9.044;2022-09-09T13:26:24;2.78;;;0.90;;
69083;SDS011;56185;48.526;9.044;2022-09-09T13:28:52;3.97;;;0.77;;
69083;SDS011;56185;48.526;9.044;2022-09-09T13:31:28;3.40;;;0.63;;
69083;SDS011;56185;48.526;9.044;2022-09-09T13:34:00;2.55;;;0.80;;
69083;SDS011;56185;48.526;9.044;2022-09-09T13:36:38;2.97;;;0.70;;
69083;SDS011;56185;48.526;9.044;2022-09-09T13:39:04;2.30;;;0.80;;
69083;SDS011;56185;48.526;9.044;2022-09-09T13:41:30;3.07;;;0.60;;
69083;SDS011;56185;48.526;9.044;2022-09-09T13:43:58;1.42;;;0.70;;
69083;SDS011;56185;48.526;9.044;2022-09-09T13:46:31;1.98;;;0.70;;
69083;SDS011;56185;48.526;9.044;2022-09-09T13:51:34;2.88;;;0.60;;
69083;SDS011;56185;48.526;9.044;2022-09-09T13:54:06;1.70;;;0.70;;
69083;SDS011;56185;48.526;9.044;2022-09-09T13:56:34;3.08;;;0.50;;
69083;SDS011;56185;48.526;9.044;2022-09-09T13:59:00;2.80;;;0.80;;
69083;SDS011;56185;48.526;9.044;2022-09-09T14:01:26;1.40;;;0.60;;
69083;SDS011;56185;48.526;9.044;2022-09-09T14:03:51;2.53;;;0.50;;
69083;SDS011;56185;48.526;9.044;2022-09-09T14:06:17;2.67;;;0.73;;
69083;SDS011;56185;48.526;9.044;2022-09-09T14:08:42;2.43;;;0.80;;
69083;SDS011;56185;48.526;9.044;2022-09-09T14:11:08;2.30;;;0.60;;
69083;SDS011;56185;48.526;9.044;2022-09-09T14:13:37;3.53;;;0.68;;
69083;SDS011;56185;48.526;9.044;2022-09-09T14:16:02;2.37;;;0.70;;
69083;SDS011;56185;48.526;9.044;2022-09-09T14:18:27;2.80;;;0.70;;
69083;SDS011;56185;48.526;9.044;2022-09-09T14:20:55;3.63;;;0.80;;
69083;SDS011;56185;48.526;9.044;2022-09-09T14:23:20;1.55;;;0.50;;
69083;SDS011;56185;48.526;9.044;2022-09-09T14:25:46;1.73;;;0.60;;
69083;SDS011;56185;48.526;9.044;2022-09-09T14:28:11;2.60;;;0.50;;
69083;SDS011;56185;48.526;9.044;2022-09-09T14:30:38;1.33;;;0.52;;
69083;SDS011;56185;48.526;9.044;2022-09-09T14:33:04;1.65;;;0.50;;
69083;SDS011;56185;48.526;9.044;2022-09-09T14:35:29;1.33;;;0.53;;
69083;SDS011;56185;48.526;9.044;2022-09-09T14:37:55;1.53;;;0.60;;
69083;SDS011;56185;48.526;9.044;2022-09-09T14:40:20;1.87;;;0.67;;
69083;SDS011;56185;48.526;9.044;2022-09-09T14:42:45;3.20;;;0.70;;
69083;SDS011;56185;48.526;9.044;2022-09-09T14:45:10;2.17;;;0.60;;
69083;SDS011;56185;48.526;9.044;2022-09-09T14:47:36;2.80;;;0.68;;
69083;SDS011;56185;48.526;9.044;2022-09-09T14:50:01;1.77;;;0.50;;
69083;SDS011;56185;48.526;9.044;2022-09-09T14:52:27;2.83;;;0.60;;
69083;SDS011;56185;48.526;9.044;2022-09-09T14:54:52;2.87;;;0.83;;
69083;SDS011;56185;48.526;9.044;2022-09-09T14:57:17;2.57;;;0.60;;
69083;SDS011;56185;48.526;9.044;2022-09-09T14:59:43;2.28;;;0.77;;
69083;SDS011;56185;48.526;9.044;2022-09-09T15:02:08;2.57;;;0.67;;
69083;SDS011;56185;48.526;9.044;2022-09-09T15:04:34;1.55;;;0.50;;
69083;SDS011;56185;48.526;9.044;2022-09-09T15:07:00;2.53;;;0.90;;
69083;SDS011;56185;48.526;9.044;2022-09-09T15:09:25;3.83;;;0.63;;
69083;SDS011;56185;48.526;9.044;2022-09-09T15:11:50;2.00;;;0.60;;
69083;SDS011;56185;48.526;9.044;2022-09-09T15:14:15;5.30;;;0.80;;
69083;SDS011;56185;48.526;9.044;2022-09-09T15:16:41;1.90;;;0.60;;
69083;SDS011;56185;48.526;9.044;2022-09-09T15:19:06;5.00;;;0.50;;
69083;SDS011;56185;48.526;9.044;2022-09-09T15:21:33;4.85;;;0.80;;
69083;SDS011;56185;48.526;9.044;2022-09-09T15:24:00;2.33;;;0.60;;
69083;SDS011;56185;48.526;9.044;2022-09-09T15:26:26;2.30;;;0.57;;
69083;SDS011;56185;48.526;9.044;2022-09-09T15:28:53;1.48;;;0.57;;
69083;SDS011;56185;48.526;9.044;2022-09-09T15:31:19;1.77;;;0.70;;
69083;SDS011;56185;48.526;9.044;2022-09-09T15:33:46;2.40;;;0.80;;
69083;SDS011;56185;48.526;9.044;2022-09-09T15:36:22;2.85;;;0.70;;
69083;SDS011;56185;48.526;9.044;2022-09-09T15:38:55;2.60;;;0.63;;
69083;SDS011;56185;48.526;9.044;2022-09-09T15:41:22;3.08;;;0.82;;
69083;SDS011;56185;48.526;9.044;2022-09-09T15:43:48;1.63;;;0.70;;
69083;SDS011;56185;48.526;9.044;2022-09-09T15:48:53;1.20;;;0.60;;
69083;SDS011;56185;48.526;9.044;2022-09-09T15:51:19;1.67;;;0.50;;
69083;SDS011;56185;48.526;9.044;2022-09-09T15:53:44;1.07;;;0.50;;
69083;SDS011;56185;48.526;9.044;2022-09-09T15:56:09;1.50;;;0.52;;
69083;SDS011;56185;48.526;9.044;2022-09-09T15:58:35;1.52;;;0.57;;
69083;SDS011;56185;48.526;9.044;2022-09-09T16:01:05;1.13;;;0.60;;
69083;SDS011;56185;48.526;9.044;2022-09-09T16:03:34;2.80;;;0.50;;
69083;SDS011;56185;48.526;9.044;2022-09-09T16:06:01;1.73;;;0.50;;
69083;SDS011;56185;48.526;9.044;2022-09-09T16:08:37;0.70;;;0.50;;
69083;SDS011;56185;48.526;9.044;2022-09-09T16:11:08;1.25;;;0.47;;
69083;SDS011;56185;48.526;9.044;2022-09-09T16:13:36;1.55;;;0.60;;
69083;SDS011;56185;48.526;9.044;2022-09-09T16:16:02;2.83;;;0.60;;
69083;SDS011;56185;48.526;9.044;2022-09-09T16:18:32;1.65;;;0.60;;
69083;SDS011;56185;48.526;9.044;2022-09-09T16:21:02;4.32;;;0.70;;
69083;SDS011;56185;48.526;9.044;2022-09-09T16:23:28;1.70;;;0.60;;
69083;SDS011;56185;48.526;9.044;2022-09-09T16:25:54;2.80;;;0.70;;
69083;SDS011;56185;48.526;9.044;2022-09-09T16:28:20;1.65;;;0.65;;
69083;SDS011;56185;48.526;9.044;2022-09-09T16:30:45;1.17;;;0.60;;
69083;SDS011;56185;48.526;9.044;2022-09-09T16:33:10;3.80;;;1.10;;
69083;SDS011;56185;48.526;9.044;2022-09-09T16:35:36;3.00;;;1.23;;
69083;SDS011;56185;48.526;9.044;2022-09-09T16:38:02;2.33;;;0.90;;
69083;SDS011;56185;48.526;9.044;2022-09-09T16:40:34;2.87;;;0.77;;
69083;SDS011;56185;48.526;9.044;2022-09-09T16:43:00;2.63;;;1.00;;
69083;SDS011;56185;48.526;9.044;2022-09-09T16:45:25;2.63;;;0.75;;
69083;SDS011;56185;48.526;9.044;2022-09-09T16:47:51;3.83;;;0.93;;
69083;SDS011;56185;48.526;9.044;2022-09-09T16:50:21;2.93;;;1.07;;
69083;SDS011;56185;48.526;9.044;2022-09-09T16:52:46;2.80;;;0.90;;
69083;SDS011;56185;48.526;9.044;2022-09-09T16:55:12;2.43;;;0.70;;
69083;SDS011;56185;48.526;9.044;2022-09-09T16:57:37;0.93;;;0.50;;
69083;SDS011;56185;48.526;9.044;2022-09-09T17:00:03;2.72;;;0.70;;
69083;SDS011;56185;48.526;9.044;2022-09-09T17:02:29;3.65;;;0.80;;
69083;SDS011;56185;48.526;9.044;2022-09-09T17:04:54;1.93;;;0.70;;
69083;SDS011;56185;48.526;9.044;2022-09-09T17:07:19;1.83;;;0.60;;